Time;durP1;ratioP1;P1;durP2;ratioP2;P2;SDS_P1;SDS_P2;PMS_P1;PMS_P2;Temp;Humidity;BMP_temperature;BMP_pressure;BME280_temperature;BME280_humidity;BME280_pressure;Samples;Min_cycle;Max_cycle;Signal;HPM_P1;HPM_P2
2022/08/20 00:00:02;;;;;;;;;;;;;;;24.69;100.00;100140.72;3054462;19;999;-53
2022/08/20 00:01:05;;;;;;;;;;;;;;;24.67;100.00;100141.94;3055031;19;980;-53
2022/08/20 00:02:10;;;;;;;;;;;;;;;24.66;100.00;100146.56;3054637;19;1600;-52
2022/08/20 00:03:22;;;;;;;;;;;;;;;24.65;100.00;100144.84;3054654;19;960;-53
2022/08/20 00:04:26;;;;;;;;;;;;;;;24.62;100.00;100141.69;3055098;19;975;-52
2022/08/20 00:05:39;;;;;;;;;;;;;;;24.59;100.00;100147.53;3054118;19;1019;-52
2022/08/20 00:06:41;;;;;;;;;;;;;;;24.53;100.00;100143.69;3054675;19;1019;-54
2022/08/20 00:07:46;;;;;;;;;;;;;;;24.49;100.00;100150.56;3054495;19;1228;-52
2022/08/20 00:08:48;;;;;;;;;;;;;;;24.44;100.00;100147.56;3053798;19;1269;-53
2022/08/20 00:09:52;;;;;;;;;;;;;;;24.39;100.00;100142.69;3053671;19;940;-52
2022/08/20 00:10:54;;;;;;;;;;;;;;;24.37;100.00;100141.19;3048169;19;909;-52
2022/08/20 00:11:59;;;;;;;;;;;;;;;24.33;100.00;100134.44;3047435;19;1352;-52
2022/08/20 00:13:01;;;;;;;;;;;;;;;24.28;100.00;100128.69;3047586;19;1251;-52
2022/08/20 00:14:07;;;;;;;;;;;;;;;24.22;100.00;100129.44;3048904;19;1019;-52
2022/08/20 00:15:09;;;;;;;;;;;;;;;24.20;100.00;100123.31;3049430;19;1035;-53
2022/08/20 00:16:14;;;;;;;;;;;;;;;24.13;100.00;100122.41;3049239;19;1866;-51
2022/08/20 00:17:16;;;;;;;;;;;;;;;24.08;100.00;100120.25;3049741;19;1201;-52
2022/08/20 00:18:21;;;;;;;;;;;;;;;24.04;100.00;100119.78;3054375;19;1647;-52
2022/08/20 00:19:23;;;;;;;;;;;;;;;24.00;100.00;100113.03;3053214;19;1031;-51
2022/08/20 00:20:32;;;;;;;;;;;;;;;23.97;100.00;100109.84;3053588;19;1035;-51
2022/08/20 00:21:35;;;;;;;;;;;;;;;23.92;100.00;100110.38;3055436;19;960;-52
2022/08/20 00:22:40;;;;;;;;;;;;;;;23.90;100.00;100106.19;3057912;19;1083;-51
2022/08/20 00:23:42;;;;;;;;;;;;;;;23.82;100.00;100101.66;3058161;19;1658;-52
2022/08/20 00:24:47;;;;;;;;;;;;;;;23.82;100.00;100107.13;3056640;19;1776;-51
2022/08/20 00:25:49;;;;;;;;;;;;;;;23.80;100.00;100106.47;3057246;19;1153;-52
2022/08/20 00:26:53;;;;;;;;;;;;;;;23.80;100.00;100101.00;3057726;19;901;-52
2022/08/20 00:27:56;;;;;;;;;;;;;;;23.74;100.00;100107.22;3057941;19;1199;-51
2022/08/20 00:29:01;;;;;;;;;;;;;;;23.74;100.00;100101.78;3057757;19;982;-51
2022/08/20 00:30:04;;;;;;;;;;;;;;;23.75;100.00;100103.47;3057344;19;1170;-51
2022/08/20 00:31:10;;;;;;;;;;;;;;;23.76;100.00;100094.25;3057301;19;1009;-53
2022/08/20 00:32:12;;;;;;;;;;;;;;;23.73;100.00;100091.91;3057610;19;1141;-51
2022/08/20 00:33:18;;;;;;;;;;;;;;;23.75;100.00;100087.13;3051768;19;869;-52
2022/08/20 00:34:20;;;;;;;;;;;;;;;23.74;100.00;100085.44;3049779;19;1060;-52
2022/08/20 00:35:26;;;;;;;;;;;;;;;23.73;100.00;100083.72;3050523;19;988;-52
2022/08/20 00:36:28;;;;;;;;;;;;;;;23.73;100.00;100080.16;3050707;19;1844;-52
2022/08/20 00:37:36;;;;;;;;;;;;;;;23.70;100.00;100089.56;3052480;19;1354;-52
2022/08/20 00:38:39;;;;;;;;;;;;;;;23.68;100.00;100086.16;3052635;19;883;-52
2022/08/20 00:39:43;;;;;;;;;;;;;;;23.68;100.00;100088.88;3051016;19;1655;-52
2022/08/20 00:40:48;;;;;;;;;;;;;;;23.69;100.00;100082.41;3056507;19;1017;-51
2022/08/20 00:41:53;;;;;;;;;;;;;;;23.67;100.00;100079.03;3057233;19;1023;-51
2022/08/20 00:42:57;;;;;;;;;;;;;;;23.70;100.00;100084.09;3057021;19;974;-52
2022/08/20 00:44:02;;;;;;;;;;;;;;;23.71;100.00;100080.34;3057650;19;1053;-51
2022/08/20 00:45:04;;;;;;;;;;;;;;;23.68;100.00;100080.72;3056932;19;1032;-51
2022/08/20 00:46:34;;;;;;;;;;;;;;;23.70;100.00;100081.38;3057265;19;957;-51
2022/08/20 00:47:39;;;;;;;;;;;;;;;23.75;100.00;100081.66;3056659;19;1854;-51
2022/08/20 00:48:56;;;;;;;;;;;;;;;23.78;100.00;100075.84;3056998;19;1113;-52
2022/08/20 00:49:58;;;;;;;;;;;;;;;23.79;100.00;100077.50;3056211;19;1076;-52
2022/08/20 00:51:05;;;;;;;;;;;;;;;23.80;100.00;100079.19;3056642;19;1102;-51
2022/08/20 00:52:15;;;;;;;;;;;;;;;23.81;100.00;100069.16;3056972;19;948;-51
2022/08/20 00:53:20;;;;;;;;;;;;;;;23.83;100.00;100078.84;3056529;19;1144;-51
2022/08/20 00:54:25;;;;;;;;;;;;;;;23.82;100.00;100071.69;3055844;19;1220;-52
2022/08/20 00:55:30;;;;;;;;;;;;;;;23.82;100.00;100074.41;3051723;19;1047;-52
2022/08/20 00:56:32;;;;;;;;;;;;;;;23.81;100.00;100061.81;3048321;19;1874;-52
2022/08/20 00:57:41;;;;;;;;;;;;;;;23.80;100.00;100062.84;3050274;19;989;-51
2022/08/20 00:59:08;;;;;;;;;;;;;;;23.79;100.00;100053.00;3050779;19;1324;-51
2022/08/20 01:00:15;;;;;;;;;;;;;;;23.77;100.00;100046.06;3051495;19;963;-52
2022/08/20 01:01:21;;;;;;;;;;;;;;;23.75;100.00;100046.25;3051704;19;1211;-51
2022/08/20 01:02:24;;;;;;;;;;;;;;;23.76;100.00;100050.66;3053918;19;1063;-52
2022/08/20 01:03:29;;;;;;;;;;;;;;;23.76;100.00;100045.22;3056409;19;987;-53
2022/08/20 01:04:32;;;;;;;;;;;;;;;23.76;100.00;100042.50;3056203;19;1374;-52
2022/08/20 01:05:37;;;;;;;;;;;;;;;23.77;100.00;100046.91;3056560;19;972;-52
2022/08/20 01:06:40;;;;;;;;;;;;;;;23.76;100.00;100045.22;3057070;19;1058;-52
2022/08/20 01:07:44;;;;;;;;;;;;;;;23.78;100.00;100054.06;3056230;19;1021;-52
2022/08/20 01:08:46;;;;;;;;;;;;;;;23.80;100.00;100043.78;3056578;19;1101;-51
2022/08/20 01:09:51;;;;;;;;;;;;;;;23.80;100.00;100054.69;3055716;19;1086;-52
2022/08/20 01:11:08;;;;;;;;;;;;;;;23.81;100.00;100050.91;3056342;19;901;-53
2022/08/20 01:12:13;;;;;;;;;;;;;;;23.81;100.00;100050.91;3055787;19;1217;-52
2022/08/20 01:13:16;;;;;;;;;;;;;;;23.81;100.00;100048.19;3055825;19;936;-51
2022/08/20 01:14:37;;;;;;;;;;;;;;;23.82;100.00;100049.03;3056528;19;991;-52
2022/08/20 01:15:40;;;;;;;;;;;;;;;23.82;100.00;100046.31;3055729;19;1042;-53
2022/08/20 01:16:47;;;;;;;;;;;;;;;23.81;100.00;100042.75;3055228;19;1907;-52
2022/08/20 01:17:50;;;;;;;;;;;;;;;23.81;100.00;100045.47;3051303;19;1034;-52
2022/08/20 01:18:59;;;;;;;;;;;;;;;23.81;100.00;100042.75;3048505;19;905;-52
2022/08/20 01:20:05;;;;;;;;;;;;;;;23.80;100.00;100032.88;3048939;19;1112;-51
2022/08/20 01:21:10;;;;;;;;;;;;;;;23.80;100.00;100041.06;3049638;19;1313;-51
2022/08/20 01:23:29;;;;;;;;;;;;;;;23.80;100.00;100029.31;3051230;19;1388;-51
2022/08/20 01:24:36;;;;;;;;;;;;;;;23.78;100.00;100026.81;3052068;19;952;-51
2022/08/20 01:25:43;;;;;;;;;;;;;;;23.78;100.00;100025.97;3057234;19;1135;-51
2022/08/20 01:26:48;;;;;;;;;;;;;;;23.78;100.00;100032.25;3056007;19;983;-52
2022/08/20 01:27:50;;;;;;;;;;;;;;;23.77;100.00;100025.09;3056168;19;940;-52
2022/08/20 01:29:06;;;;;;;;;;;;;;;23.77;100.00;100030.56;3056085;19;912;-52
2022/08/20 01:30:08;;;;;;;;;;;;;;;23.77;100.00;100029.72;3056024;19;978;-52
2022/08/20 01:31:15;;;;;;;;;;;;;;;23.75;100.00;100027.16;3055991;19;1134;-51
2022/08/20 01:32:17;;;;;;;;;;;;;;;23.74;100.00;100028.22;3056723;19;1023;-51
2022/08/20 01:33:23;;;;;;;;;;;;;;;23.74;100.00;100030.09;3056794;19;1649;-51
2022/08/20 01:34:25;;;;;;;;;;;;;;;23.72;100.00;100033.00;3057311;19;922;-52
2022/08/20 01:35:29;;;;;;;;;;;;;;;23.71;100.00;100020.41;3055517;19;1023;-51
2022/08/20 01:36:36;;;;;;;;;;;;;;;23.71;100.00;100020.41;3055598;19;950;-51
2022/08/20 01:37:41;;;;;;;;;;;;;;;23.70;100.00;100021.44;3056197;19;1228;-52
2022/08/20 01:38:45;;;;;;;;;;;;;;;23.69;100.00;100017.88;3056606;19;919;-51
2022/08/20 01:39:55;;;;;;;;;;;;;;;23.68;100.00;100026.22;3055102;19;1373;-51
2022/08/20 01:41:09;;;;;;;;;;;;;;;23.68;100.00;100026.22;3049060;19;1386;-51
2022/08/20 01:42:16;;;;;;;;;;;;;;;23.66;100.00;100020.16;3048023;19;1147;-51
2022/08/20 01:43:18;;;;;;;;;;;;;;;23.64;100.00;100019.50;3048970;19;1022;-52
2022/08/20 01:44:25;;;;;;;;;;;;;;;23.62;100.00;100011.50;3050423;19;1002;-52
2022/08/20 01:45:29;;;;;;;;;;;;;;;23.60;100.00;100015.44;3051923;19;928;-52
2022/08/20 01:46:38;;;;;;;;;;;;;;;23.59;100.00;100011.88;3051829;19;1004;-52
2022/08/20 01:47:44;;;;;;;;;;;;;;;23.50;100.00;100001.25;3055319;19;1115;-51
2022/08/20 01:48:53;;;;;;;;;;;;;;;23.54;100.00;100008.91;3055961;19;1361;-51
2022/08/20 01:49:57;;;;;;;;;;;;;;;23.50;100.00;100003.97;3056241;19;1027;-52
2022/08/20 01:51:13;;;;;;;;;;;;;;;23.47;100.00;99999.75;3056709;19;900;-51
2022/08/20 01:52:21;;;;;;;;;;;;;;;23.44;100.00;99996.53;3056069;19;1024;-51
2022/08/20 01:53:28;;;;;;;;;;;;;;;23.39;100.00;99988.13;3055093;19;1224;-52
2022/08/20 01:54:30;;;;;;;;;;;;;;;23.34;100.00;99992.25;3055706;19;1202;-51
2022/08/20 01:55:35;;;;;;;;;;;;;;;23.31;100.00;99987.16;3055949;19;1106;-51
2022/08/20 01:56:49;;;;;;;;;;;;;;;23.26;100.00;99984.19;3056240;19;1150;-51
2022/08/20 01:57:53;;;;;;;;;;;;;;;23.22;100.00;99985.56;3054601;19;1463;-51
2022/08/20 01:58:56;;;;;;;;;;;;;;;23.17;100.00;99979.88;3054711;19;1033;-51
2022/08/20 02:00:02;;;;;;;;;;;;;;;23.14;100.00;99973.94;3056250;19;1251;-52
2022/08/20 02:01:05;;;;;;;;;;;;;;;23.09;100.00;99970.94;3056334;19;933;-51
2022/08/20 02:02:11;;;;;;;;;;;;;;;23.04;100.00;99968.78;3055298;19;1700;-52
2022/08/20 02:03:13;;;;;;;;;;;;;;;23.01;100.00;99969.16;3049171;19;963;-51
2022/08/20 02:04:18;;;;;;;;;;;;;;;22.91;100.00;99952.28;3047891;19;1162;-51
2022/08/20 02:05:20;;;;;;;;;;;;;;;22.92;100.00;99956.69;3049252;19;1083;-51
2022/08/20 02:06:25;;;;;;;;;;;;;;;22.89;100.00;99954.31;3050542;19;1783;-52
2022/08/20 02:07:31;;;;;;;;;;;;;;;22.87;100.00;99959.09;3051722;19;1058;-51
2022/08/20 02:08:35;;;;;;;;;;;;;;;22.87;100.00;99961.81;3051077;19;1156;-51
2022/08/20 02:09:38;;;;;;;;;;;;;;;22.85;100.00;99953.00;3053132;19;1073;-51
2022/08/20 02:10:45;;;;;;;;;;;;;;;22.84;100.00;99956.75;3055840;19;1826;-51
2022/08/20 02:11:47;;;;;;;;;;;;;;;22.82;100.00;99964.28;3054929;19;1369;-52
2022/08/20 02:12:51;;;;;;;;;;;;;;;22.80;100.00;99960.91;3055912;19;1168;-52
2022/08/20 02:13:55;;;;;;;;;;;;;;;22.78;100.00;99962.94;3055627;19;1257;-51
2022/08/20 02:15:00;;;;;;;;;;;;;;;22.79;100.00;99964.63;3055814;19;1265;-51
2022/08/20 02:16:02;;;;;;;;;;;;;;;22.77;100.00;99977.59;3056369;19;940;-53
2022/08/20 02:17:06;;;;;;;;;;;;;;;22.77;100.00;99977.59;3055179;19;1148;-52
2022/08/20 02:18:10;;;;;;;;;;;;;;;22.74;100.00;99977.91;3056135;19;1093;-52
2022/08/20 02:19:16;;;;;;;;;;;;;;;22.73;100.00;99968.06;3056136;19;1075;-52
2022/08/20 02:20:23;;;;;;;;;;;;;;;22.71;100.00;99960.06;3055337;19;1090;-52
2022/08/20 02:21:30;;;;;;;;;;;;;;;22.69;100.00;99958.59;3055050;19;893;-51
2022/08/20 02:22:54;;;;;;;;;;;;;;;22.69;100.00;99958.59;3055322;19;1020;-51
2022/08/20 02:23:58;;;;;;;;;;;;;;;22.66;100.00;99970.69;3056146;19;916;-51
2022/08/20 02:25:00;;;;;;;;;;;;;;;22.64;100.00;99981.75;3052127;19;1246;-51
2022/08/20 02:26:06;;;;;;;;;;;;;;;22.62;100.00;99983.81;3048843;19;881;-51
2022/08/20 02:27:08;;;;;;;;;;;;;;;22.61;100.00;99975.81;3048193;19;959;-51
2022/08/20 02:28:13;;;;;;;;;;;;;;;22.59;100.00;99970.56;3050285;19;1076;-51
2022/08/20 02:29:15;;;;;;;;;;;;;;;22.57;100.00;99967.22;3050944;19;1015;-52
2022/08/20 02:30:20;;;;;;;;;;;;;;;22.55;100.00;99969.25;3051028;19;968;-51
2022/08/20 02:31:28;;;;;;;;;;;;;;;22.52;100.00;99969.63;3050466;19;1080;-51
2022/08/20 02:32:38;;;;;;;;;;;;;;;22.53;100.00;99970.47;3055582;19;1038;-51
2022/08/20 02:33:40;;;;;;;;;;;;;;;22.50;100.00;99971.69;3055235;19;1158;-51
2022/08/20 02:35:07;;;;;;;;;;;;;;;22.48;100.00;99968.28;3055152;19;1012;-51
2022/08/20 02:36:09;;;;;;;;;;;;;;;22.45;100.00;99952.38;3055861;19;945;-52
2022/08/20 02:37:17;;;;;;;;;;;;;;;22.44;100.00;99956.09;3056167;19;1078;-51
2022/08/20 02:38:18;;;;;;;;;;;;;;;22.42;100.00;99947.28;3054878;19;1869;-52
2022/08/20 02:39:25;;;;;;;;;;;;;;;22.38;100.00;99935.06;3055913;19;1087;-51
2022/08/20 02:40:27;;;;;;;;;;;;;;;22.35;100.00;99935.44;3056232;19;979;-51
2022/08/20 02:41:34;;;;;;;;;;;;;;;22.29;100.00;99914.44;3055721;19;1087;-51
2022/08/20 02:42:42;;;;;;;;;;;;;;;22.24;100.00;99900.53;3055908;19;1175;-52
2022/08/20 02:43:48;;;;;;;;;;;;;;;22.10;100.00;99894.03;3054848;19;1155;-51
2022/08/20 02:44:50;;;;;;;;;;;;;;;22.01;100.00;99883.41;3054011;19;916;-52
2022/08/20 02:45:55;;;;;;;;;;;;;;;22.02;100.00;99879.69;3055320;19;1172;-51
2022/08/20 02:46:57;;;;;;;;;;;;;;;22.02;100.00;99879.69;3055590;19;1111;-51
2022/08/20 02:48:01;;;;;;;;;;;;;;;21.97;100.00;99882.94;3048604;19;1536;-51
2022/08/20 02:49:03;;;;;;;;;;;;;;;21.97;100.00;99887.53;3048817;19;896;-53
2022/08/20 02:50:09;;;;;;;;;;;;;;;22.00;100.00;99889.88;3047112;19;984;-51
2022/08/20 02:51:11;;;;;;;;;;;;;;;22.02;100.00;99890.53;3050123;19;889;-51
2022/08/20 02:52:15;;;;;;;;;;;;;;;22.07;100.00;99904.44;3050496;19;1113;-52
2022/08/20 02:53:17;;;;;;;;;;;;;;;22.08;100.00;99901.56;3051207;19;922;-52
2022/08/20 02:54:22;;;;;;;;;;;;;;;22.12;100.00;99907.44;3051122;19;1244;-52
2022/08/20 02:55:24;;;;;;;;;;;;;;;22.13;100.00;99906.41;3055637;19;1127;-51
2022/08/20 02:56:31;;;;;;;;;;;;;;;22.14;100.00;99906.25;3054779;19;944;-51
2022/08/20 02:57:33;;;;;;;;;;;;;;;22.17;100.00;99899.59;3055048;19;1074;-51
2022/08/20 02:58:37;;;;;;;;;;;;;;;22.18;100.00;99893.13;3053844;19;1849;-52
2022/08/20 02:59:39;;;;;;;;;;;;;;;22.22;100.00;99905.31;3055627;19;1031;-52
2022/08/20 03:00:44;;;;;;;;;;;;;;;22.23;100.00;99894.25;3055369;19;1084;-51
2022/08/20 03:01:51;;;;;;;;;;;;;;;22.25;100.00;99896.78;3055505;19;1043;-52
2022/08/20 03:03:01;;;;;;;;;;;;;;;22.26;100.00;99890.34;3055668;19;1231;-52
2022/08/20 03:04:05;;;;;;;;;;;;;;;22.32;100.00;99902.34;3055792;19;1161;-51
2022/08/20 03:05:07;;;;;;;;;;;;;;;22.31;100.00;99895.22;3055013;19;857;-52
2022/08/20 03:06:12;;;;;;;;;;;;;;;22.29;100.00;99898.13;3055855;19;900;-51
2022/08/20 03:07:14;;;;;;;;;;;;;;;22.33;100.00;99898.63;3055934;19;1272;-52
2022/08/20 03:08:19;;;;;;;;;;;;;;;22.33;100.00;99909.50;3055737;19;1008;-52
2022/08/20 03:09:20;;;;;;;;;;;;;;;22.31;100.00;99896.06;3055738;19;1067;-52
2022/08/20 03:10:26;;;;;;;;;;;;;;;22.38;100.00;99913.31;3048855;19;1208;-52
2022/08/20 03:11:28;;;;;;;;;;;;;;;22.43;100.00;99910.91;3048639;19;1463;-53
2022/08/20 03:12:33;;;;;;;;;;;;;;;22.50;100.00;99911.84;3047632;19;933;-52
2022/08/20 03:13:38;;;;;;;;;;;;;;;22.56;100.00;99916.56;3049140;19;1015;-52
2022/08/20 03:14:40;;;;;;;;;;;;;;;22.61;100.00;99918.69;3050174;19;1175;-53
2022/08/20 03:15:46;;;;;;;;;;;;;;;22.62;100.00;99915.81;3050588;19;1050;-52
2022/08/20 03:16:48;;;;;;;;;;;;;;;22.66;100.00;99921.72;3050003;19;1075;-52
2022/08/20 03:17:52;;;;;;;;;;;;;;;22.69;100.00;99923.22;3055522;19;1130;-52
2022/08/20 03:18:54;;;;;;;;;;;;;;;22.73;100.00;99916.38;3054132;19;1854;-52
2022/08/20 03:19:59;;;;;;;;;;;;;;;22.76;100.00;99926.91;3055254;19;989;-53
2022/08/20 03:21:01;;;;;;;;;;;;;;;22.79;100.00;99926.56;3055060;19;1109;-52
2022/08/20 03:22:06;;;;;;;;;;;;;;;22.82;100.00;99927.00;3055328;19;1192;-52
2022/08/20 03:23:08;;;;;;;;;;;;;;;22.84;100.00;99940.41;3055161;19;910;-53
2022/08/20 03:24:12;;;;;;;;;;;;;;;22.84;100.00;99937.69;3055558;19;952;-52
2022/08/20 03:25:14;;;;;;;;;;;;;;;22.85;100.00;99936.66;3054105;19;1236;-52
2022/08/20 03:26:19;;;;;;;;;;;;;;;22.87;100.00;99935.47;3055791;19;979;-52
2022/08/20 03:27:21;;;;;;;;;;;;;;;22.89;100.00;99936.13;3055403;19;955;-53
2022/08/20 03:28:29;;;;;;;;;;;;;;;22.93;100.00;99939.31;3054141;19;1106;-53
2022/08/20 03:29:31;;;;;;;;;;;;;;;22.95;100.00;99937.22;3054982;19;1419;-52
2022/08/20 03:30:36;;;;;;;;;;;;;;;22.96;100.00;99933.47;3054997;19;1050;-52
2022/08/20 03:31:38;;;;;;;;;;;;;;;22.98;100.00;99931.41;3055193;19;995;-53
2022/08/20 03:32:42;;;;;;;;;;;;;;;22.97;100.00;99936.03;3050422;19;1055;-51
2022/08/20 03:33:44;;;;;;;;;;;;;;;22.99;100.00;99933.97;3046976;19;1021;-52
2022/08/20 03:34:56;;;;;;;;;;;;;;;22.98;100.00;99920.53;3047620;19;968;-52
2022/08/20 03:35:58;;;;;;;;;;;;;;;22.95;100.00;99910.03;3049319;19;1040;-52
2022/08/20 03:37:03;;;;;;;;;;;;;;;22.99;100.00;99916.78;3050036;19;1117;-52
2022/08/20 03:38:06;;;;;;;;;;;;;;;22.92;100.00;99911.25;3049655;19;1023;-52
2022/08/20 03:39:12;;;;;;;;;;;;;;;22.93;100.00;99912.97;3048148;19;1844;-52
2022/08/20 03:40:15;;;;;;;;;;;;;;;22.90;100.00;99918.78;3054335;19;972;-52
2022/08/20 03:41:20;;;;;;;;;;;;;;;22.92;100.00;99910.41;3055827;19;1066;-52
2022/08/20 03:42:22;;;;;;;;;;;;;;;22.93;100.00;99912.13;3054057;19;998;-52
2022/08/20 03:43:26;;;;;;;;;;;;;;;22.94;100.00;99908.38;3054212;19;997;-52
2022/08/20 03:44:28;;;;;;;;;;;;;;;22.96;100.00;99909.00;3054211;19;1344;-52
2022/08/20 03:45:34;;;;;;;;;;;;;;;22.99;100.00;99916.78;3055144;19;1231;-52
2022/08/20 03:46:37;;;;;;;;;;;;;;;23.04;100.00;99919.81;3055149;19;1257;-52
2022/08/20 03:47:42;;;;;;;;;;;;;;;23.07;100.00;99924.84;3054680;19;1153;-52
2022/08/20 03:48:44;;;;;;;;;;;;;;;23.12;100.00;99936.03;3054684;19;967;-51
2022/08/20 03:49:51;;;;;;;;;;;;;;;23.14;100.00;99936.69;3054850;19;1112;-52
2022/08/20 03:50:54;;;;;;;;;;;;;;;23.17;100.00;99941.75;3055211;19;912;-52
2022/08/20 03:52:00;;;;;;;;;;;;;;;23.21;100.00;99943.06;3055572;19;1657;-52
2022/08/20 03:53:03;;;;;;;;;;;;;;;23.26;100.00;99947.94;3055316;19;1239;-52
2022/08/20 03:54:09;;;;;;;;;;;;;;;23.28;100.00;99949.44;3054884;19;1470;-52
2022/08/20 03:55:10;;;;;;;;;;;;;;;23.34;100.00;99953.28;3048282;19;1237;-52
2022/08/20 03:56:16;;;;;;;;;;;;;;;23.39;100.00;99966.31;3048179;19;1160;-51
2022/08/20 03:57:17;;;;;;;;;;;;;;;23.42;100.00;99965.97;3050850;19;989;-52
2022/08/20 03:58:22;;;;;;;;;;;;;;;23.47;100.00;99974.38;3052419;19;1630;-52
2022/08/20 03:59:37;;;;;;;;;;;;;;;23.54;100.00;99980.81;3053593;19;1095;-52
2022/08/20 04:00:45;;;;;;;;;;;;;;;23.58;100.00;99982.09;3052942;19;1004;-52
2022/08/20 04:01:47;;;;;;;;;;;;;;;23.66;100.00;99984.72;3054459;19;1228;-52
2022/08/20 04:02:52;;;;;;;;;;;;;;;23.72;100.00;99989.41;3057719;19;962;-52
2022/08/20 04:03:57;;;;;;;;;;;;;;;23.77;100.00;99986.97;3057968;19;1045;-52
2022/08/20 04:05:01;;;;;;;;;;;;;;;23.83;100.00;99979.88;3057944;19;1009;-52
2022/08/20 04:06:03;;;;;;;;;;;;;;;23.88;100.00;99975.56;3058022;19;1192;-52
2022/08/20 04:07:15;;;;;;;;;;;;;;;23.94;100.00;99966.59;3057896;19;1125;-52
2022/08/20 04:08:18;;;;;;;;;;;;;;;24.02;100.00;99976.53;3058307;19;986;-52
2022/08/20 04:09:22;;;;;;;;;;;;;;;24.08;100.00;99988.53;3058169;19;895;-52
2022/08/20 04:10:24;;;;;;;;;;;;;;;24.14;100.00;99977.72;3058023;19;962;-53
2022/08/20 04:11:29;;;;;;;;;;;;;;;24.21;100.00;99975.03;3057773;19;1201;-52
2022/08/20 04:12:31;;;;;;;;;;;;;;;24.30;100.00;99982.06;3058129;19;1090;-52
2022/08/20 04:13:38;;;;;;;;;;;;;;;24.38;100.00;99990.16;3057966;19;959;-51
2022/08/20 04:14:44;;;;;;;;;;;;;;;24.50;100.00;99995.91;3057371;19;1011;-51
2022/08/20 04:15:48;;;;;;;;;;;;;;;24.59;100.00;99995.56;3058014;19;1035;-52
2022/08/20 04:16:51;;;;;;;;;;;;;;;24.67;100.00;99995.41;3053418;19;1898;-53
2022/08/20 04:17:55;;;;;;;;;;;;;;;24.73;100.00;99994.66;3048701;19;1452;-51
2022/08/20 04:18:59;;;;;;;;;;;;;;;24.81;100.00;99995.53;3049007;19;1845;-52
2022/08/20 04:20:06;;;;;;;;;;;;;;;24.87;100.00;100003.78;3048748;19;1676;-52
2022/08/20 04:21:09;;;;;;;;;;;;;;;24.96;100.00;100004.50;3051238;19;1391;-51
2022/08/20 04:22:15;;;;;;;;;;;;;;;25.01;100.00;100007.47;3051499;19;1471;-51
2022/08/20 04:23:17;;;;;;;;;;;;;;;25.06;100.00;100005.00;3052360;19;1302;-51
2022/08/20 04:24:21;;;;;;;;;;;;;;;25.11;100.00;100011.56;3052626;19;1756;-51
2022/08/20 04:25:33;;;;;;;;;;;;;;;25.16;100.00;100016.38;3055788;19;1434;-51
2022/08/20 04:26:39;;;;;;;;;;;;;;;25.20;100.00;100014.13;3056687;19;1000;-51
2022/08/20 04:27:41;;;;;;;;;;;;;;;25.22;100.00;100014.75;3056822;19;916;-51
2022/08/20 04:28:45;;;;;;;;;;;;;;;25.25;100.00;100017.91;3057620;19;1215;-52
2022/08/20 04:29:47;;;;;;;;;;;;;;;25.26;100.00;100024.22;3057115;19;1087;-52
2022/08/20 04:30:53;;;;;;;;;;;;;;;25.24;100.00;100018.94;3058277;19;1052;-52
2022/08/20 04:31:55;;;;;;;;;;;;;;;25.27;100.00;100024.03;3057683;19;1077;-51
2022/08/20 04:32:59;;;;;;;;;;;;;;;25.27;100.00;100028.63;3058024;19;1002;-52
2022/08/20 04:34:03;;;;;;;;;;;;;;;25.36;100.00;100027.44;3057031;19;949;-51
2022/08/20 04:35:08;;;;;;;;;;;;;;;25.45;100.00;100026.25;3057506;19;953;-51
2022/08/20 04:36:10;;;;;;;;;;;;;;;25.47;100.00;100030.47;3057472;19;1274;-51
2022/08/20 04:37:16;;;;;;;;;;;;;;;25.47;100.00;100027.72;3057641;19;1029;-51
2022/08/20 04:38:18;;;;;;;;;;;;;;;25.66;100.00;100028.06;3057919;19;939;-51
2022/08/20 04:39:23;;;;;;;;;;;;;;;25.82;100.00;100030.44;3055301;19;1853;-51
2022/08/20 04:41:42;;;;;;;;;;;;;;;25.73;100.00;100034.38;3049437;19;1026;-52
2022/08/20 04:42:46;;;;;;;;;;;;;;;25.68;100.00;100032.28;3051168;19;1190;-51
2022/08/20 04:43:57;;;;;;;;;;;;;;;25.66;100.00;100031.63;3052853;19;1168;-52
2022/08/20 04:44:58;;;;;;;;;;;;;;;25.65;100.00;100037.28;3051483;19;960;-52
2022/08/20 04:46:08;;;;;;;;;;;;;;;25.62;100.00;100033.06;3051572;19;1623;-51
2022/08/20 04:47:10;;;;;;;;;;;;;;;25.61;100.00;100025.06;3055848;19;1467;-51
2022/08/20 04:48:15;;;;;;;;;;;;;;;25.59;100.00;100033.47;3057799;19;1304;-51
2022/08/20 04:49:25;;;;;;;;;;;;;;;25.59;100.00;100032.63;3057976;19;1146;-52
2022/08/20 04:50:33;;;;;;;;;;;;;;;25.59;100.00;100032.63;3058111;19;849;-51
2022/08/20 04:51:35;;;;;;;;;;;;;;;25.57;100.00;100024.63;3057006;19;1115;-51
2022/08/20 04:52:40;;;;;;;;;;;;;;;25.60;100.00;100037.03;3057195;19;1015;-51
2022/08/20 04:53:44;;;;;;;;;;;;;;;25.61;100.00;100030.53;3057918;19;1201;-51
2022/08/20 04:54:55;;;;;;;;;;;;;;;25.64;100.00;100027.41;3057422;19;826;-51
2022/08/20 04:56:01;;;;;;;;;;;;;;;25.67;100.00;100018.81;3057877;19;992;-51
2022/08/20 04:57:03;;;;;;;;;;;;;;;25.71;100.00;100020.09;3057271;19;1258;-52
2022/08/20 04:58:08;;;;;;;;;;;;;;;25.73;100.00;100018.81;3057420;19;1637;-51
2022/08/20 04:59:10;;;;;;;;;;;;;;;25.75;100.00;100015.88;3056769;19;1184;-51
2022/08/20 05:00:16;;;;;;;;;;;;;;;25.78;100.00;100021.81;3055972;19;1855;-52
2022/08/20 05:01:19;;;;;;;;;;;;;;;25.80;100.00;100024.34;3056986;19;980;-51
2022/08/20 05:02:24;;;;;;;;;;;;;;;25.80;100.00;100035.28;3051733;19;1202;-51
2022/08/20 05:03:25;;;;;;;;;;;;;;;25.81;100.00;100026.88;3050369;19;1338;-51
2022/08/20 05:04:30;;;;;;;;;;;;;;;25.83;100.00;100035.72;3049913;19;942;-50
2022/08/20 05:05:33;;;;;;;;;;;;;;;25.83;100.00;100032.13;3051494;19;926;-51
2022/08/20 05:06:39;;;;;;;;;;;;;;;25.82;100.00;100027.72;3052092;19;883;-51
2022/08/20 05:07:44;;;;;;;;;;;;;;;25.83;100.00;100029.41;3051180;19;996;-51
2022/08/20 05:08:49;;;;;;;;;;;;;;;25.82;100.00;100036.75;3052877;19;988;-51
2022/08/20 05:09:50;;;;;;;;;;;;;;;25.83;100.00;100034.88;3056206;19;994;-50
2022/08/20 05:10:56;;;;;;;;;;;;;;;25.82;100.00;100031.28;3057155;19;1029;-51
2022/08/20 05:12:18;;;;;;;;;;;;;;;25.82;100.00;100028.56;3056948;19;1141;-51
2022/08/20 05:13:23;;;;;;;;;;;;;;;25.83;100.00;100029.41;3057558;19;1019;-51
2022/08/20 05:14:28;;;;;;;;;;;;;;;25.79;100.00;100034.41;3057697;19;1001;-51
2022/08/20 05:15:33;;;;;;;;;;;;;;;25.72;100.00;100024.53;3056636;19;903;-51
2022/08/20 05:16:38;;;;;;;;;;;;;;;25.73;100.00;100023.44;3056309;19;1724;-50
2022/08/20 05:17:43;;;;;;;;;;;;;;;25.69;100.00;100033.13;3056907;19;933;-51
2022/08/20 05:18:45;;;;;;;;;;;;;;;25.66;100.00;100028.06;3057078;19;947;-51
2022/08/20 05:19:57;;;;;;;;;;;;;;;25.67;100.00;100029.75;3056580;19;1853;-50
2022/08/20 05:21:04;;;;;;;;;;;;;;;25.66;100.00;100025.31;3057353;19;906;-51
2022/08/20 05:22:06;;;;;;;;;;;;;;;25.62;100.00;100021.28;3056845;19;1121;-52
2022/08/20 05:23:12;;;;;;;;;;;;;;;25.66;100.00;100031.63;3057281;19;935;-51
2022/08/20 05:24:14;;;;;;;;;;;;;;;25.68;100.00;100025.97;3054454;19;1009;-51
2022/08/20 05:25:20;;;;;;;;;;;;;;;25.68;100.00;100025.97;3050366;19;1452;-52
2022/08/20 05:26:25;;;;;;;;;;;;;;;25.69;100.00;100033.13;3049661;19;936;-51
2022/08/20 05:27:30;;;;;;;;;;;;;;;25.76;100.00;100028.50;3050060;19;964;-51
2022/08/20 05:28:32;;;;;;;;;;;;;;;25.78;100.00;100031.88;3051453;19;1336;-52
2022/08/20 05:29:56;;;;;;;;;;;;;;;25.82;100.00;100027.72;3051848;19;1075;-51
2022/08/20 05:31:00;;;;;;;;;;;;;;;25.83;100.00;100032.13;3051813;19;1023;-51
2022/08/20 05:32:05;;;;;;;;;;;;;;;25.84;100.00;100036.56;3055791;19;966;-50
2022/08/20 05:33:07;;;;;;;;;;;;;;;25.78;100.00;100037.34;3056785;19;1188;-52
2022/08/20 05:34:12;;;;;;;;;;;;;;;25.77;100.00;100022.00;3056880;19;1700;-51
2022/08/20 05:35:14;;;;;;;;;;;;;;;25.81;100.00;100026.03;3056528;19;1154;-51
2022/08/20 05:36:20;;;;;;;;;;;;;;;25.82;100.00;100022.25;3056825;19;1181;-52
2022/08/20 05:37:22;;;;;;;;;;;;;;;25.79;100.00;100030.84;3057125;19;1021;-52
2022/08/20 05:38:29;;;;;;;;;;;;;;;25.79;100.00;100025.38;3056684;19;991;-51
2022/08/20 05:39:31;;;;;;;;;;;;;;;25.75;100.00;100026.81;3056508;19;1369;-52